Arlington, Ohio
Current Conditions -  °F | °C
As of 1:53 AM on Wednesday 26 Nov 2014 (Local Time) from KFDY Reporting Station
Overcast Overcast  
Wind Chill: 24°   Ceiling: 1900
Heat Index: 29°   Visibility: 10mi
Dew Point: 20°   Wind: 5mph
Humidity: 69%   Direction: 340°NNW
Pressure: 30.15"   Gusts: NA
Location:  40.89°N, 83.65°W
Report Text: KFDY 260653Z AUTO 34004KT 10SM OVC019 M02/M07 A3015 RMK AO2 SLP216 T10171067
Loading
Personal Weather Stations






























Interactive Weather Map New forecast layout! Learn more

10-Day Weather Forecast

Advertisements
Track Severe Weather on mobile